sensor_id;sensor_type;location;lat;lon;timestamp;P1;durP1;ratioP1;P2;durP2;ratioP2
59193;SDS011;44967;48.598;15.650;2022-11-15T00:00:24;43.15;;;21.83;;
59193;SDS011;44967;48.598;15.650;2022-11-15T00:02:51;43.00;;;23.00;;
59193;SDS011;44967;48.598;15.650;2022-11-15T00:05:17;41.45;;;22.98;;
59193;SDS011;44967;48.598;15.650;2022-11-15T00:07:43;46.75;;;25.77;;
59193;SDS011;44967;48.598;15.650;2022-11-15T00:10:09;42.42;;;22.33;;
59193;SDS011;44967;48.598;15.650;2022-11-15T00:12:35;40.72;;;23.48;;
59193;SDS011;44967;48.598;15.650;2022-11-15T00:15:01;41.28;;;22.70;;
59193;SDS011;44967;48.598;15.650;2022-11-15T00:17:27;42.30;;;22.50;;
59193;SDS011;44967;48.598;15.650;2022-11-15T00:19:53;38.97;;;22.25;;
59193;SDS011;44967;48.598;15.650;2022-11-15T00:22:19;44.33;;;22.90;;
59193;SDS011;44967;48.598;15.650;2022-11-15T00:24:44;38.67;;;20.75;;
59193;SDS011;44967;48.598;15.650;2022-11-15T00:27:10;41.95;;;22.13;;
59193;SDS011;44967;48.598;15.650;2022-11-15T00:29:36;39.67;;;21.15;;
59193;SDS011;44967;48.598;15.650;2022-11-15T00:32:04;38.25;;;20.13;;
59193;SDS011;44967;48.598;15.650;2022-11-15T00:34:30;38.15;;;20.73;;
59193;SDS011;44967;48.598;15.650;2022-11-15T00:36:56;36.83;;;20.77;;
59193;SDS011;44967;48.598;15.650;2022-11-15T00:39:21;38.17;;;20.35;;
59193;SDS011;44967;48.598;15.650;2022-11-15T00:41:47;41.10;;;22.10;;
59193;SDS011;44967;48.598;15.650;2022-11-15T00:44:13;35.97;;;19.63;;
59193;SDS011;44967;48.598;15.650;2022-11-15T00:46:38;39.80;;;22.15;;
59193;SDS011;44967;48.598;15.650;2022-11-15T00:49:04;41.50;;;22.08;;
59193;SDS011;44967;48.598;15.650;2022-11-15T00:51:30;40.70;;;21.35;;
59193;SDS011;44967;48.598;15.650;2022-11-15T00:53:55;34.13;;;19.45;;
59193;SDS011;44967;48.598;15.650;2022-11-15T00:56:22;35.00;;;18.77;;
59193;SDS011;44967;48.598;15.650;2022-11-15T00:58:47;30.55;;;17.73;;
59193;SDS011;44967;48.598;15.650;2022-11-15T01:01:13;36.53;;;18.50;;
59193;SDS011;44967;48.598;15.650;2022-11-15T01:03:39;34.58;;;18.05;;
59193;SDS011;44967;48.598;15.650;2022-11-15T01:06:06;33.78;;;17.67;;
59193;SDS011;44967;48.598;15.650;2022-11-15T01:08:33;30.35;;;16.02;;
59193;SDS011;44967;48.598;15.650;2022-11-15T01:11:00;29.38;;;16.60;;
59193;SDS011;44967;48.598;15.650;2022-11-15T01:13:31;32.92;;;18.00;;
59193;SDS011;44967;48.598;15.650;2022-11-15T01:15:58;31.90;;;17.90;;
59193;SDS011;44967;48.598;15.650;2022-11-15T01:18:30;32.90;;;17.40;;
59193;SDS011;44967;48.598;15.650;2022-11-15T01:20:56;36.63;;;17.70;;
59193;SDS011;44967;48.598;15.650;2022-11-15T01:23:22;31.15;;;16.45;;
59193;SDS011;44967;48.598;15.650;2022-11-15T01:25:48;29.75;;;17.20;;
59193;SDS011;44967;48.598;15.650;2022-11-15T01:28:13;29.30;;;15.70;;
59193;SDS011;44967;48.598;15.650;2022-11-15T01:30:39;32.42;;;16.92;;
59193;SDS011;44967;48.598;15.650;2022-11-15T01:33:04;31.90;;;16.75;;
59193;SDS011;44967;48.598;15.650;2022-11-15T01:35:30;26.77;;;15.93;;
59193;SDS011;44967;48.598;15.650;2022-11-15T01:37:56;31.73;;;15.35;;
59193;SDS011;44967;48.598;15.650;2022-11-15T01:40:21;27.80;;;15.55;;
59193;SDS011;44967;48.598;15.650;2022-11-15T01:42:47;28.50;;;16.65;;
59193;SDS011;44967;48.598;15.650;2022-11-15T01:45:13;27.80;;;15.88;;
59193;SDS011;44967;48.598;15.650;2022-11-15T01:47:41;31.08;;;16.60;;
59193;SDS011;44967;48.598;15.650;2022-11-15T01:50:12;33.08;;;17.58;;
59193;SDS011;44967;48.598;15.650;2022-11-15T01:52:41;33.25;;;17.67;;
59193;SDS011;44967;48.598;15.650;2022-11-15T01:55:08;37.50;;;18.77;;
59193;SDS011;44967;48.598;15.650;2022-11-15T01:57:34;35.72;;;19.67;;
59193;SDS011;44967;48.598;15.650;2022-11-15T02:00:00;36.28;;;18.67;;
59193;SDS011;44967;48.598;15.650;2022-11-15T02:02:28;38.60;;;20.23;;
59193;SDS011;44967;48.598;15.650;2022-11-15T02:04:54;37.72;;;18.80;;
59193;SDS011;44967;48.598;15.650;2022-11-15T02:07:20;37.42;;;19.52;;
59193;SDS011;44967;48.598;15.650;2022-11-15T02:09:47;33.58;;;18.42;;
59193;SDS011;44967;48.598;15.650;2022-11-15T02:12:15;40.28;;;20.10;;
59193;SDS011;44967;48.598;15.650;2022-11-15T02:14:46;41.63;;;19.85;;
59193;SDS011;44967;48.598;15.650;2022-11-15T02:28:10;30.75;;;17.00;;
59193;SDS011;44967;48.598;15.650;2022-11-15T02:42:41;29.98;;;15.88;;
59193;SDS011;44967;48.598;15.650;2022-11-15T02:45:36;31.88;;;17.25;;
59193;SDS011;44967;48.598;15.650;2022-11-15T02:48:06;32.25;;;16.38;;
59193;SDS011;44967;48.598;15.650;2022-11-15T02:50:34;31.15;;;16.38;;
59193;SDS011;44967;48.598;15.650;2022-11-15T02:53:00;32.65;;;16.92;;
59193;SDS011;44967;48.598;15.650;2022-11-15T02:55:32;30.42;;;16.52;;
59193;SDS011;44967;48.598;15.650;2022-11-15T02:58:02;32.53;;;16.85;;
59193;SDS011;44967;48.598;15.650;2022-11-15T03:00:33;36.70;;;17.67;;
59193;SDS011;44967;48.598;15.650;2022-11-15T03:11:24;46.65;;;21.42;;
59193;SDS011;44967;48.598;15.650;2022-11-15T03:16:51;48.00;;;20.60;;
59193;SDS011;44967;48.598;15.650;2022-11-15T03:22:13;54.30;;;22.75;;
59193;SDS011;44967;48.598;15.650;2022-11-15T03:24:44;48.15;;;22.48;;
59193;SDS011;44967;48.598;15.650;2022-11-15T03:27:12;46.22;;;21.60;;
59193;SDS011;44967;48.598;15.650;2022-11-15T03:29:44;45.13;;;21.02;;
59193;SDS011;44967;48.598;15.650;2022-11-15T03:32:19;48.65;;;20.58;;
59193;SDS011;44967;48.598;15.650;2022-11-15T03:35:02;48.78;;;21.52;;
59193;SDS011;44967;48.598;15.650;2022-11-15T03:40:23;46.72;;;21.00;;
59193;SDS011;44967;48.598;15.650;2022-11-15T03:45:28;42.22;;;19.48;;
59193;SDS011;44967;48.598;15.650;2022-11-15T03:48:18;40.55;;;19.83;;
59193;SDS011;44967;48.598;15.650;2022-11-15T03:50:49;44.45;;;18.85;;
59193;SDS011;44967;48.598;15.650;2022-11-15T03:53:15;38.92;;;17.90;;
59193;SDS011;44967;48.598;15.650;2022-11-15T03:55:41;42.65;;;20.55;;
59193;SDS011;44967;48.598;15.650;2022-11-15T03:58:06;37.00;;;17.30;;
59193;SDS011;44967;48.598;15.650;2022-11-15T04:00:32;38.05;;;17.33;;
59193;SDS011;44967;48.598;15.650;2022-11-15T04:02:57;42.53;;;17.73;;
59193;SDS011;44967;48.598;15.650;2022-11-15T04:05:23;36.05;;;17.20;;
59193;SDS011;44967;48.598;15.650;2022-11-15T04:07:49;34.55;;;16.42;;
59193;SDS011;44967;48.598;15.650;2022-11-15T04:10:15;42.95;;;19.00;;
59193;SDS011;44967;48.598;15.650;2022-11-15T04:12:42;35.65;;;16.35;;
59193;SDS011;44967;48.598;15.650;2022-11-15T04:15:12;39.35;;;18.45;;
59193;SDS011;44967;48.598;15.650;2022-11-15T04:17:46;34.33;;;15.57;;
59193;SDS011;44967;48.598;15.650;2022-11-15T04:20:20;36.60;;;15.40;;
59193;SDS011;44967;48.598;15.650;2022-11-15T04:23:08;32.55;;;15.32;;
59193;SDS011;44967;48.598;15.650;2022-11-15T04:25:55;33.92;;;16.17;;
59193;SDS011;44967;48.598;15.650;2022-11-15T04:28:23;34.92;;;15.80;;
59193;SDS011;44967;48.598;15.650;2022-11-15T04:30:49;37.78;;;17.05;;
59193;SDS011;44967;48.598;15.650;2022-11-15T04:33:15;32.55;;;15.45;;
59193;SDS011;44967;48.598;15.650;2022-11-15T04:35:41;34.70;;;16.60;;
59193;SDS011;44967;48.598;15.650;2022-11-15T04:38:08;32.15;;;15.55;;
59193;SDS011;44967;48.598;15.650;2022-11-15T04:40:35;30.40;;;15.10;;
59193;SDS011;44967;48.598;15.650;2022-11-15T04:43:02;33.65;;;16.10;;
59193;SDS011;44967;48.598;15.650;2022-11-15T04:45:29;36.40;;;15.10;;
59193;SDS011;44967;48.598;15.650;2022-11-15T04:47:55;34.17;;;15.32;;
59193;SDS011;44967;48.598;15.650;2022-11-15T04:50:21;34.00;;;16.05;;
59193;SDS011;44967;48.598;15.650;2022-11-15T04:52:50;34.08;;;15.02;;
59193;SDS011;44967;48.598;15.650;2022-11-15T04:55:18;34.78;;;15.55;;
59193;SDS011;44967;48.598;15.650;2022-11-15T04:57:45;30.88;;;15.65;;
59193;SDS011;44967;48.598;15.650;2022-11-15T05:00:12;34.58;;;15.23;;
59193;SDS011;44967;48.598;15.650;2022-11-15T05:02:40;31.35;;;15.32;;
59193;SDS011;44967;48.598;15.650;2022-11-15T05:05:24;36.88;;;16.33;;
59193;SDS011;44967;48.598;15.650;2022-11-15T05:07:50;39.10;;;17.77;;
59193;SDS011;44967;48.598;15.650;2022-11-15T05:10:16;35.47;;;16.80;;
59193;SDS011;44967;48.598;15.650;2022-11-15T05:12:42;34.95;;;17.08;;
59193;SDS011;44967;48.598;15.650;2022-11-15T05:15:08;35.67;;;16.92;;
59193;SDS011;44967;48.598;15.650;2022-11-15T05:17:34;31.08;;;15.05;;
59193;SDS011;44967;48.598;15.650;2022-11-15T05:19:59;28.50;;;14.50;;
59193;SDS011;44967;48.598;15.650;2022-11-15T05:22:25;33.40;;;16.48;;
59193;SDS011;44967;48.598;15.650;2022-11-15T05:24:52;34.17;;;16.80;;
59193;SDS011;44967;48.598;15.650;2022-11-15T05:27:18;31.80;;;14.77;;
59193;SDS011;44967;48.598;15.650;2022-11-15T05:29:46;30.33;;;14.70;;
59193;SDS011;44967;48.598;15.650;2022-11-15T05:32:12;34.38;;;15.70;;
59193;SDS011;44967;48.598;15.650;2022-11-15T05:34:38;32.40;;;15.52;;
59193;SDS011;44967;48.598;15.650;2022-11-15T05:37:04;35.15;;;16.05;;
59193;SDS011;44967;48.598;15.650;2022-11-15T05:39:30;28.92;;;13.85;;
59193;SDS011;44967;48.598;15.650;2022-11-15T05:42:00;33.13;;;15.30;;
59193;SDS011;44967;48.598;15.650;2022-11-15T05:44:31;31.42;;;14.07;;
59193;SDS011;44967;48.598;15.650;2022-11-15T05:46:59;32.08;;;14.95;;
59193;SDS011;44967;48.598;15.650;2022-11-15T05:49:26;28.40;;;13.98;;
59193;SDS011;44967;48.598;15.650;2022-11-15T05:51:56;28.08;;;13.18;;
59193;SDS011;44967;48.598;15.650;2022-11-15T05:54:23;29.85;;;13.82;;
59193;SDS011;44967;48.598;15.650;2022-11-15T05:56:50;25.73;;;12.75;;
59193;SDS011;44967;48.598;15.650;2022-11-15T05:59:16;33.30;;;14.50;;
59193;SDS011;44967;48.598;15.650;2022-11-15T06:01:43;27.85;;;13.50;;
59193;SDS011;44967;48.598;15.650;2022-11-15T06:04:09;28.80;;;14.48;;
59193;SDS011;44967;48.598;15.650;2022-11-15T06:06:35;25.65;;;12.95;;
59193;SDS011;44967;48.598;15.650;2022-11-15T06:09:00;23.88;;;13.13;;
59193;SDS011;44967;48.598;15.650;2022-11-15T06:11:26;25.85;;;13.27;;
59193;SDS011;44967;48.598;15.650;2022-11-15T06:13:51;31.92;;;14.13;;
59193;SDS011;44967;48.598;15.650;2022-11-15T06:16:17;22.35;;;13.13;;
59193;SDS011;44967;48.598;15.650;2022-11-15T06:18:43;24.65;;;13.00;;
59193;SDS011;44967;48.598;15.650;2022-11-15T06:21:08;26.20;;;13.63;;
59193;SDS011;44967;48.598;15.650;2022-11-15T06:23:34;26.42;;;13.25;;
59193;SDS011;44967;48.598;15.650;2022-11-15T06:26:01;26.95;;;13.20;;
59193;SDS011;44967;48.598;15.650;2022-11-15T06:28:29;27.35;;;12.80;;
59193;SDS011;44967;48.598;15.650;2022-11-15T06:31:07;22.92;;;12.25;;
59193;SDS011;44967;48.598;15.650;2022-11-15T06:33:36;26.42;;;13.40;;
59193;SDS011;44967;48.598;15.650;2022-11-15T06:36:04;23.85;;;12.27;;
59193;SDS011;44967;48.598;15.650;2022-11-15T06:38:31;27.33;;;13.38;;
59193;SDS011;44967;48.598;15.650;2022-11-15T06:41:01;23.25;;;12.60;;
59193;SDS011;44967;48.598;15.650;2022-11-15T06:43:27;26.20;;;12.52;;
59193;SDS011;44967;48.598;15.650;2022-11-15T06:45:53;27.23;;;13.25;;
59193;SDS011;44967;48.598;15.650;2022-11-15T06:48:19;25.45;;;13.23;;
59193;SDS011;44967;48.598;15.650;2022-11-15T06:50:50;25.30;;;12.57;;
59193;SDS011;44967;48.598;15.650;2022-11-15T06:53:17;25.30;;;13.65;;
59193;SDS011;44967;48.598;15.650;2022-11-15T06:55:42;23.20;;;11.88;;
59193;SDS011;44967;48.598;15.650;2022-11-15T06:58:08;29.73;;;13.27;;
59193;SDS011;44967;48.598;15.650;2022-11-15T07:00:33;28.48;;;13.40;;
59193;SDS011;44967;48.598;15.650;2022-11-15T07:03:00;23.38;;;12.30;;
59193;SDS011;44967;48.598;15.650;2022-11-15T07:05:26;27.52;;;13.52;;
59193;SDS011;44967;48.598;15.650;2022-11-15T07:07:53;23.30;;;11.95;;
59193;SDS011;44967;48.598;15.650;2022-11-15T07:10:20;22.52;;;11.82;;
59193;SDS011;44967;48.598;15.650;2022-11-15T07:12:49;26.27;;;12.32;;
59193;SDS011;44967;48.598;15.650;2022-11-15T07:15:17;22.15;;;12.82;;
59193;SDS011;44967;48.598;15.650;2022-11-15T07:17:44;26.60;;;12.15;;
59193;SDS011;44967;48.598;15.650;2022-11-15T07:20:10;25.85;;;11.55;;
59193;SDS011;44967;48.598;15.650;2022-11-15T07:22:36;23.70;;;11.80;;
59193;SDS011;44967;48.598;15.650;2022-11-15T07:25:02;21.75;;;11.02;;
59193;SDS011;44967;48.598;15.650;2022-11-15T07:27:29;25.00;;;12.05;;
59193;SDS011;44967;48.598;15.650;2022-11-15T07:29:55;20.00;;;11.40;;
59193;SDS011;44967;48.598;15.650;2022-11-15T07:32:20;21.27;;;11.60;;
59193;SDS011;44967;48.598;15.650;2022-11-15T07:34:46;22.85;;;11.88;;
59193;SDS011;44967;48.598;15.650;2022-11-15T07:37:12;22.23;;;11.45;;
59193;SDS011;44967;48.598;15.650;2022-11-15T07:39:38;26.00;;;11.48;;
59193;SDS011;44967;48.598;15.650;2022-11-15T07:42:04;22.73;;;12.32;;
59193;SDS011;44967;48.598;15.650;2022-11-15T07:44:48;18.92;;;10.45;;
59193;SDS011;44967;48.598;15.650;2022-11-15T07:47:14;19.90;;;10.95;;
59193;SDS011;44967;48.598;15.650;2022-11-15T07:49:40;21.30;;;11.50;;
59193;SDS011;44967;48.598;15.650;2022-11-15T07:52:05;21.92;;;11.50;;
59193;SDS011;44967;48.598;15.650;2022-11-15T07:54:31;22.15;;;11.18;;
59193;SDS011;44967;48.598;15.650;2022-11-15T07:56:56;26.55;;;11.98;;
59193;SDS011;44967;48.598;15.650;2022-11-15T07:59:22;24.23;;;11.93;;
59193;SDS011;44967;48.598;15.650;2022-11-15T08:01:48;23.42;;;10.80;;
59193;SDS011;44967;48.598;15.650;2022-11-15T08:04:14;26.75;;;10.43;;
59193;SDS011;44967;48.598;15.650;2022-11-15T08:06:40;24.00;;;11.15;;
59193;SDS011;44967;48.598;15.650;2022-11-15T08:09:05;21.40;;;11.23;;
59193;SDS011;44967;48.598;15.650;2022-11-15T08:11:31;20.88;;;10.48;;
59193;SDS011;44967;48.598;15.650;2022-11-15T08:13:58;18.90;;;10.98;;
59193;SDS011;44967;48.598;15.650;2022-11-15T08:16:24;22.20;;;11.80;;
59193;SDS011;44967;48.598;15.650;2022-11-15T08:18:49;21.90;;;11.20;;
59193;SDS011;44967;48.598;15.650;2022-11-15T08:21:17;22.98;;;11.75;;
59193;SDS011;44967;48.598;15.650;2022-11-15T08:23:44;25.25;;;11.85;;
59193;SDS011;44967;48.598;15.650;2022-11-15T08:26:10;22.33;;;10.15;;
59193;SDS011;44967;48.598;15.650;2022-11-15T08:28:36;23.33;;;10.45;;
59193;SDS011;44967;48.598;15.650;2022-11-15T08:31:03;19.02;;;10.30;;
59193;SDS011;44967;48.598;15.650;2022-11-15T08:33:29;20.75;;;10.50;;
59193;SDS011;44967;48.598;15.650;2022-11-15T08:35:56;21.55;;;11.05;;
59193;SDS011;44967;48.598;15.650;2022-11-15T08:38:23;24.00;;;11.15;;
59193;SDS011;44967;48.598;15.650;2022-11-15T08:40:50;18.00;;;9.60;;
59193;SDS011;44967;48.598;15.650;2022-11-15T08:43:17;23.90;;;10.43;;
59193;SDS011;44967;48.598;15.650;2022-11-15T08:45:43;23.95;;;10.80;;
59193;SDS011;44967;48.598;15.650;2022-11-15T08:48:09;21.35;;;10.40;;
59193;SDS011;44967;48.598;15.650;2022-11-15T08:50:35;25.30;;;12.32;;
59193;SDS011;44967;48.598;15.650;2022-11-15T08:53:07;21.05;;;10.27;;
59193;SDS011;44967;48.598;15.650;2022-11-15T08:55:35;20.90;;;10.38;;
59193;SDS011;44967;48.598;15.650;2022-11-15T08:58:03;19.55;;;9.93;;
59193;SDS011;44967;48.598;15.650;2022-11-15T09:00:29;23.00;;;10.65;;
59193;SDS011;44967;48.598;15.650;2022-11-15T09:02:55;18.65;;;10.13;;
59193;SDS011;44967;48.598;15.650;2022-11-15T09:05:20;20.77;;;10.60;;
59193;SDS011;44967;48.598;15.650;2022-11-15T09:07:47;17.30;;;9.48;;
59193;SDS011;44967;48.598;15.650;2022-11-15T09:10:12;19.02;;;10.20;;
59193;SDS011;44967;48.598;15.650;2022-11-15T09:12:38;20.50;;;9.45;;
59193;SDS011;44967;48.598;15.650;2022-11-15T09:15:04;18.63;;;10.10;;
59193;SDS011;44967;48.598;15.650;2022-11-15T09:17:31;14.75;;;9.23;;
59193;SDS011;44967;48.598;15.650;2022-11-15T09:19:57;18.90;;;9.38;;
59193;SDS011;44967;48.598;15.650;2022-11-15T09:22:22;19.73;;;9.73;;
59193;SDS011;44967;48.598;15.650;2022-11-15T09:24:48;15.68;;;9.38;;
59193;SDS011;44967;48.598;15.650;2022-11-15T09:27:13;19.35;;;9.75;;
59193;SDS011;44967;48.598;15.650;2022-11-15T09:29:40;16.85;;;9.07;;
59193;SDS011;44967;48.598;15.650;2022-11-15T09:32:05;16.90;;;8.68;;
59193;SDS011;44967;48.598;15.650;2022-11-15T09:34:31;17.08;;;9.30;;
59193;SDS011;44967;48.598;15.650;2022-11-15T09:36:57;15.25;;;8.77;;
59193;SDS011;44967;48.598;15.650;2022-11-15T09:39:22;18.30;;;9.60;;
59193;SDS011;44967;48.598;15.650;2022-11-15T09:42:09;16.90;;;8.25;;
59193;SDS011;44967;48.598;15.650;2022-11-15T09:51:18;17.60;;;9.32;;
59193;SDS011;44967;48.598;15.650;2022-11-15T09:56:35;19.35;;;9.75;;
59193;SDS011;44967;48.598;15.650;2022-11-15T09:59:15;16.95;;;9.25;;
59193;SDS011;44967;48.598;15.650;2022-11-15T10:04:42;19.40;;;9.23;;
59193;SDS011;44967;48.598;15.650;2022-11-15T10:09:56;19.80;;;10.02;;
59193;SDS011;44967;48.598;15.650;2022-11-15T10:12:38;18.25;;;9.77;;
59193;SDS011;44967;48.598;15.650;2022-11-15T10:15:11;18.52;;;10.02;;
59193;SDS011;44967;48.598;15.650;2022-11-15T10:17:54;25.35;;;10.23;;
59193;SDS011;44967;48.598;15.650;2022-11-15T10:20:30;21.25;;;9.57;;
59193;SDS011;44967;48.598;15.650;2022-11-15T10:23:06;18.42;;;9.70;;
59193;SDS011;44967;48.598;15.650;2022-11-15T10:25:35;19.80;;;9.38;;
59193;SDS011;44967;48.598;15.650;2022-11-15T10:30:30;19.05;;;10.40;;
59193;SDS011;44967;48.598;15.650;2022-11-15T10:33:01;20.33;;;10.48;;
59193;SDS011;44967;48.598;15.650;2022-11-15T10:35:37;20.60;;;9.43;;
59193;SDS011;44967;48.598;15.650;2022-11-15T10:38:04;20.05;;;10.50;;
59193;SDS011;44967;48.598;15.650;2022-11-15T10:40:31;22.67;;;10.20;;
59193;SDS011;44967;48.598;15.650;2022-11-15T10:43:17;19.55;;;10.45;;
59193;SDS011;44967;48.598;15.650;2022-11-15T10:45:44;18.88;;;9.75;;
59193;SDS011;44967;48.598;15.650;2022-11-15T10:50:37;18.38;;;9.95;;
59193;SDS011;44967;48.598;15.650;2022-11-15T10:53:03;22.17;;;10.73;;
59193;SDS011;44967;48.598;15.650;2022-11-15T10:55:57;21.58;;;11.25;;
59193;SDS011;44967;48.598;15.650;2022-11-15T10:58:31;24.05;;;10.73;;
59193;SDS011;44967;48.598;15.650;2022-11-15T11:01:09;24.48;;;11.88;;
59193;SDS011;44967;48.598;15.650;2022-11-15T11:03:36;24.42;;;11.45;;
59193;SDS011;44967;48.598;15.650;2022-11-15T11:06:16;20.80;;;10.38;;
59193;SDS011;44967;48.598;15.650;2022-11-15T11:09:05;24.77;;;11.10;;
59193;SDS011;44967;48.598;15.650;2022-11-15T11:11:51;20.63;;;10.88;;
59193;SDS011;44967;48.598;15.650;2022-11-15T11:14:28;19.48;;;11.07;;
59193;SDS011;44967;48.598;15.650;2022-11-15T11:33:22;20.65;;;10.13;;
59193;SDS011;44967;48.598;15.650;2022-11-15T11:41:47;20.95;;;11.27;;
59193;SDS011;44967;48.598;15.650;2022-11-15T11:47:24;22.52;;;10.40;;
59193;SDS011;44967;48.598;15.650;2022-11-15T11:49:57;20.58;;;10.38;;
59193;SDS011;44967;48.598;15.650;2022-11-15T11:52:37;19.30;;;10.73;;
59193;SDS011;44967;48.598;15.650;2022-11-15T11:55:12;22.10;;;10.82;;
59193;SDS011;44967;48.598;15.650;2022-11-15T11:57:41;24.45;;;12.25;;
59193;SDS011;44967;48.598;15.650;2022-11-15T12:00:22;19.80;;;11.38;;
59193;SDS011;44967;48.598;15.650;2022-11-15T12:03:09;24.27;;;12.35;;
59193;SDS011;44967;48.598;15.650;2022-11-15T12:05:40;22.38;;;11.63;;
59193;SDS011;44967;48.598;15.650;2022-11-15T12:10:49;20.58;;;11.00;;
59193;SDS011;44967;48.598;15.650;2022-11-15T12:13:34;26.50;;;12.35;;
59193;SDS011;44967;48.598;15.650;2022-11-15T12:16:12;27.83;;;12.82;;
59193;SDS011;44967;48.598;15.650;2022-11-15T12:18:46;21.42;;;11.32;;
59193;SDS011;44967;48.598;15.650;2022-11-15T12:23:52;22.65;;;11.50;;
59193;SDS011;44967;48.598;15.650;2022-11-15T12:26:27;24.73;;;11.80;;
59193;SDS011;44967;48.598;15.650;2022-11-15T12:29:05;24.90;;;12.50;;
59193;SDS011;44967;48.598;15.650;2022-11-15T12:31:42;24.20;;;12.02;;
59193;SDS011;44967;48.598;15.650;2022-11-15T12:36:45;26.13;;;12.60;;
59193;SDS011;44967;48.598;15.650;2022-11-15T12:39:13;24.67;;;12.60;;
59193;SDS011;44967;48.598;15.650;2022-11-15T12:41:43;23.92;;;12.05;;
59193;SDS011;44967;48.598;15.650;2022-11-15T12:47:03;25.33;;;12.63;;
59193;SDS011;44967;48.598;15.650;2022-11-15T13:02:39;20.95;;;11.48;;
59193;SDS011;44967;48.598;15.650;2022-11-15T13:17:43;23.73;;;11.23;;
59193;SDS011;44967;48.598;15.650;2022-11-15T13:23:02;23.20;;;11.23;;
59193;SDS011;44967;48.598;15.650;2022-11-15T13:30:48;21.65;;;10.52;;
59193;SDS011;44967;48.598;15.650;2022-11-15T13:33:23;23.73;;;11.60;;
59193;SDS011;44967;48.598;15.650;2022-11-15T13:36:01;21.65;;;11.38;;
59193;SDS011;44967;48.598;15.650;2022-11-15T13:38:57;28.33;;;12.85;;
59193;SDS011;44967;48.598;15.650;2022-11-15T13:41:32;26.77;;;12.40;;
59193;SDS011;44967;48.598;15.650;2022-11-15T13:44:00;25.17;;;11.18;;
59193;SDS011;44967;48.598;15.650;2022-11-15T13:46:32;22.80;;;11.27;;
59193;SDS011;44967;48.598;15.650;2022-11-15T13:49:07;23.00;;;10.82;;
59193;SDS011;44967;48.598;15.650;2022-11-15T13:51:42;20.88;;;11.20;;
59193;SDS011;44967;48.598;15.650;2022-11-15T13:56:37;24.67;;;10.95;;
59193;SDS011;44967;48.598;15.650;2022-11-15T13:59:10;20.20;;;11.05;;
59193;SDS011;44967;48.598;15.650;2022-11-15T14:01:41;23.13;;;12.23;;
59193;SDS011;44967;48.598;15.650;2022-11-15T14:04:09;24.08;;;13.30;;
59193;SDS011;44967;48.598;15.650;2022-11-15T14:06:44;25.25;;;12.45;;
59193;SDS011;44967;48.598;15.650;2022-11-15T14:09:24;27.48;;;11.90;;
59193;SDS011;44967;48.598;15.650;2022-11-15T14:11:56;27.50;;;12.60;;
59193;SDS011;44967;48.598;15.650;2022-11-15T14:14:23;24.10;;;12.45;;
59193;SDS011;44967;48.598;15.650;2022-11-15T14:16:52;28.13;;;12.73;;
59193;SDS011;44967;48.598;15.650;2022-11-15T14:27:44;25.20;;;11.88;;
59193;SDS011;44967;48.598;15.650;2022-11-15T14:30:31;24.25;;;13.05;;
59193;SDS011;44967;48.598;15.650;2022-11-15T14:32:57;25.65;;;13.30;;
59193;SDS011;44967;48.598;15.650;2022-11-15T14:35:23;26.77;;;12.13;;
59193;SDS011;44967;48.598;15.650;2022-11-15T14:37:49;22.75;;;12.40;;
59193;SDS011;44967;48.598;15.650;2022-11-15T14:40:15;23.30;;;12.13;;
59193;SDS011;44967;48.598;15.650;2022-11-15T14:42:46;19.25;;;11.00;;
59193;SDS011;44967;48.598;15.650;2022-11-15T14:45:18;18.95;;;11.00;;
59193;SDS011;44967;48.598;15.650;2022-11-15T14:47:45;23.17;;;13.10;;
59193;SDS011;44967;48.598;15.650;2022-11-15T14:50:15;19.02;;;10.68;;
59193;SDS011;44967;48.598;15.650;2022-11-15T14:52:46;16.98;;;10.38;;
59193;SDS011;44967;48.598;15.650;2022-11-15T14:55:23;19.63;;;11.02;;
59193;SDS011;44967;48.598;15.650;2022-11-15T14:57:50;18.00;;;10.48;;
59193;SDS011;44967;48.598;15.650;2022-11-15T15:00:17;17.75;;;9.93;;
59193;SDS011;44967;48.598;15.650;2022-11-15T15:02:44;18.08;;;10.48;;
59193;SDS011;44967;48.598;15.650;2022-11-15T15:07:39;21.75;;;10.82;;
59193;SDS011;44967;48.598;15.650;2022-11-15T15:10:04;18.85;;;10.38;;
59193;SDS011;44967;48.598;15.650;2022-11-15T15:12:30;20.85;;;10.98;;
59193;SDS011;44967;48.598;15.650;2022-11-15T15:14:56;21.25;;;9.68;;
59193;SDS011;44967;48.598;15.650;2022-11-15T15:17:21;20.08;;;9.95;;
59193;SDS011;44967;48.598;15.650;2022-11-15T15:19:47;17.45;;;9.07;;
59193;SDS011;44967;48.598;15.650;2022-11-15T15:22:14;20.80;;;10.48;;
59193;SDS011;44967;48.598;15.650;2022-11-15T15:24:42;15.63;;;9.02;;
59193;SDS011;44967;48.598;15.650;2022-11-15T15:27:11;20.77;;;10.02;;
59193;SDS011;44967;48.598;15.650;2022-11-15T15:29:37;17.50;;;9.32;;
59193;SDS011;44967;48.598;15.650;2022-11-15T15:32:03;16.85;;;10.02;;
59193;SDS011;44967;48.598;15.650;2022-11-15T15:34:30;21.52;;;11.38;;
59193;SDS011;44967;48.598;15.650;2022-11-15T15:39:40;42.75;;;22.05;;
59193;SDS011;44967;48.598;15.650;2022-11-15T15:42:05;30.70;;;16.38;;
59193;SDS011;44967;48.598;15.650;2022-11-15T15:44:31;31.83;;;16.98;;
59193;SDS011;44967;48.598;15.650;2022-11-15T15:46:56;25.45;;;14.65;;
59193;SDS011;44967;48.598;15.650;2022-11-15T15:49:23;26.65;;;14.25;;
59193;SDS011;44967;48.598;15.650;2022-11-15T15:51:49;24.25;;;12.48;;
59193;SDS011;44967;48.598;15.650;2022-11-15T15:54:14;20.48;;;11.50;;
59193;SDS011;44967;48.598;15.650;2022-11-15T15:56:40;17.58;;;9.45;;
59193;SDS011;44967;48.598;15.650;2022-11-15T15:59:06;18.05;;;10.05;;
59193;SDS011;44967;48.598;15.650;2022-11-15T16:01:32;19.17;;;10.40;;
59193;SDS011;44967;48.598;15.650;2022-11-15T16:03:57;21.33;;;11.00;;
59193;SDS011;44967;48.598;15.650;2022-11-15T16:06:33;21.10;;;11.55;;
59193;SDS011;44967;48.598;15.650;2022-11-15T16:09:16;17.95;;;10.10;;
59193;SDS011;44967;48.598;15.650;2022-11-15T16:11:45;19.95;;;10.48;;
59193;SDS011;44967;48.598;15.650;2022-11-15T16:14:11;18.90;;;10.77;;
59193;SDS011;44967;48.598;15.650;2022-11-15T16:16:38;23.88;;;12.20;;
59193;SDS011;44967;48.598;15.650;2022-11-15T16:19:04;21.48;;;12.50;;
59193;SDS011;44967;48.598;15.650;2022-11-15T16:21:30;20.33;;;11.95;;
59193;SDS011;44967;48.598;15.650;2022-11-15T16:23:55;18.95;;;10.80;;
59193;SDS011;44967;48.598;15.650;2022-11-15T16:26:22;18.13;;;10.90;;
59193;SDS011;44967;48.598;15.650;2022-11-15T16:28:50;17.70;;;10.27;;
59193;SDS011;44967;48.598;15.650;2022-11-15T16:31:16;19.13;;;10.35;;
59193;SDS011;44967;48.598;15.650;2022-11-15T16:33:45;20.25;;;11.40;;
59193;SDS011;44967;48.598;15.650;2022-11-15T16:36:20;20.88;;;11.38;;
59193;SDS011;44967;48.598;15.650;2022-11-15T16:38:52;15.98;;;10.25;;
59193;SDS011;44967;48.598;15.650;2022-11-15T16:41:18;20.63;;;11.13;;
59193;SDS011;44967;48.598;15.650;2022-11-15T16:43:44;18.80;;;10.68;;
59193;SDS011;44967;48.598;15.650;2022-11-15T16:46:15;20.23;;;11.73;;
59193;SDS011;44967;48.598;15.650;2022-11-15T16:48:45;18.85;;;11.25;;